Time;durP1;ratioP1;P1;durP2;ratioP2;P2;SDS_P1;SDS_P2;PMS_P1;PMS_P2;Temp;Humidity;BMP_temperature;BMP_pressure;BME280_temperature;BME280_humidity;BME280_pressure;Samples;Min_cycle;Max_cycle;Signal;HPM_P1;HPM_P2
2023/07/24 00:03:30;;;;;;;14.10;6.22;;;;;16.90;99973.00;;;;10155629;29;20263;-76
2023/07/24 00:08:31;;;;;;;11.20;6.05;;;;;17.00;99972.00;;;;10169226;28;20278;-76
2023/07/24 00:13:32;;;;;;;16.42;6.78;;;;;17.00;99983.00;;;;10157529;29;20206;-76
2023/07/24 00:18:34;;;;;;;15.77;8.07;;;;;17.20;99957.00;;;;10162601;29;20214;-77
2023/07/24 00:23:35;;;;;;;14.57;7.85;;;;;17.20;99961.00;;;;10165131;29;20206;-77
2023/07/24 00:28:39;;;;;;;14.75;7.72;;;;;17.30;99947.00;;;;10175030;29;20214;-77
2023/07/24 00:33:41;;;;;;;12.75;7.50;;;;;17.30;99946.00;;;;10161325;29;20206;-77
2023/07/24 00:38:42;;;;;;;19.48;7.80;;;;;17.30;99940.00;;;;10168613;29;20446;-76
2023/07/24 00:43:43;;;;;;;15.48;7.82;;;;;17.30;99937.00;;;;10160660;29;20207;-76
2023/07/24 00:48:46;;;;;;;22.95;8.45;;;;;17.30;99926.00;;;;10159820;29;20423;-78
2023/07/24 00:53:47;;;;;;;11.88;7.43;;;;;17.40;99929.00;;;;10162291;29;20229;-76
2023/07/24 00:58:49;;;;;;;16.48;8.70;;;;;17.40;99912.00;;;;10160864;29;20215;-76
2023/07/24 01:03:51;;;;;;;15.00;8.57;;;;;17.50;99918.00;;;;10161615;29;20788;-77
2023/07/24 01:08:53;;;;;;;15.90;8.90;;;;;17.50;99898.00;;;;10154866;29;20206;-77
2023/07/24 01:14:12;;;;;;;21.52;9.63;;;;;17.50;99888.00;;;;10156840;29;20441;-77
2023/07/24 01:19:42;;;;;;;21.52;8.80;;;;;17.50;99892.00;;;;10158667;29;20205;-78
2023/07/24 01:25:15;;;;;;;16.92;8.35;;;;;17.60;99883.00;;;;10152945;29;20677;-80
2023/07/24 01:30:18;;;;;;;19.40;8.98;;;;;17.60;99865.00;;;;10153631;29;20202;-77
2023/07/24 01:35:21;;;;;;;16.67;7.88;;;;;17.60;99869.00;;;;10158391;29;20225;-80
2023/07/24 01:40:23;;;;;;;18.77;8.55;;;;;17.60;99863.00;;;;10158363;29;20194;-78
2023/07/24 01:45:25;;;;;;;16.50;7.13;;;;;17.60;99863.00;;;;10165091;29;20829;-76
2023/07/24 01:50:26;;;;;;;13.20;7.10;;;;;17.60;99886.00;;;;10156829;29;20258;-78
2023/07/24 01:55:28;;;;;;;26.13;8.05;;;;;17.60;99887.00;;;;10162369;29;20329;-80
2023/07/24 02:00:29;;;;;;;27.98;7.93;;;;;17.60;99891.00;;;;10140168;29;20573;-79
2023/07/24 02:05:34;;;;;;;11.57;6.22;;;;;17.60;99889.00;;;;10152338;29;20217;-78
2023/07/24 02:10:37;;;;;;;17.77;6.20;;;;;17.60;99872.00;;;;10180146;28;20255;-78
2023/07/24 02:15:39;;;;;;;10.63;6.18;;;;;17.60;99870.00;;;;10156499;29;20227;-78
2023/07/24 02:20:41;;;;;;;18.58;5.47;;;;;17.50;99850.00;;;;10156925;29;20209;-80
2023/07/24 02:25:42;;;;;;;25.63;5.50;;;;;17.50;99853.00;;;;10149197;29;20426;-80
2023/07/24 02:30:44;;;;;;;11.60;3.97;;;;;17.50;99807.00;;;;10157743;29;20211;-80
2023/07/24 02:35:45;;;;;;;8.55;3.10;;;;;17.40;99825.00;;;;10122541;29;20367;-78
2023/07/24 02:40:48;;;;;;;4.28;2.60;;;;;17.40;99809.00;;;;10143873;29;20673;-76
2023/07/24 02:45:50;;;;;;;7.43;2.75;;;;;17.30;99830.00;;;;10148750;29;20214;-76
2023/07/24 02:50:51;;;;;;;5.25;2.60;;;;;17.20;99830.00;;;;10150052;29;20284;-76
2023/07/24 02:55:52;;;;;;;4.47;2.13;;;;;17.20;99840.00;;;;10151483;29;20696;-77
2023/07/24 03:00:54;;;;;;;2.67;1.80;;;;;17.10;99809.00;;;;10152186;29;20203;-77
2023/07/24 03:05:55;;;;;;;5.00;1.90;;;;;17.10;99835.00;;;;10149611;29;20673;-76
2023/07/24 03:10:57;;;;;;;2.35;1.80;;;;;17.10;99844.00;;;;10151954;29;20252;-78
2023/07/24 03:15:58;;;;;;;4.35;1.83;;;;;17.10;99863.00;;;;10173068;29;20230;-78
2023/07/24 03:21:00;;;;;;;2.92;2.00;;;;;17.00;99882.00;;;;10157467;29;20206;-79
2023/07/24 03:26:01;;;;;;;2.50;1.85;;;;;17.00;99867.00;;;;10150178;29;20200;-78
2023/07/24 03:31:03;;;;;;;3.35;1.60;;;;;16.90;99864.00;;;;10159610;29;20198;-76
2023/07/24 03:36:04;;;;;;;2.88;1.90;;;;;16.80;99870.00;;;;10145863;29;20257;-75
2023/07/24 03:41:05;;;;;;;2.72;1.60;;;;;16.60;99853.00;;;;10150460;29;20489;-77
2023/07/24 03:46:07;;;;;;;2.70;1.70;;;;;16.50;99861.00;;;;10167624;29;20309;-77
2023/07/24 03:51:08;;;;;;;5.22;1.80;;;;;16.40;99849.00;;;;10151089;29;20568;-80
2023/07/24 03:56:09;;;;;;;2.90;2.30;;;;;16.30;99840.00;;;;10145747;29;20721;-77
2023/07/24 04:01:11;;;;;;;3.67;2.00;;;;;16.20;99839.00;;;;10149748;29;20852;-76
2023/07/24 04:06:12;;;;;;;2.47;2.10;;;;;16.20;99841.00;;;;10169335;28;20558;-77
2023/07/24 04:11:13;;;;;;;6.55;2.00;;;;;16.20;99839.00;;;;10145824;29;20397;-80
2023/07/24 04:16:14;;;;;;;5.60;2.30;;;;;16.20;99845.00;;;;10152409;29;20230;-76
2023/07/24 04:21:15;;;;;;;3.72;2.13;;;;;16.30;99857.00;;;;10152253;29;20206;-77
2023/07/24 04:26:17;;;;;;;4.75;2.28;;;;;16.40;99861.00;;;;10147082;29;20658;-77
2023/07/24 04:31:18;;;;;;;3.85;2.30;;;;;16.40;99856.00;;;;10151587;29;20250;-79
2023/07/24 04:36:19;;;;;;;3.35;2.38;;;;;16.50;99856.00;;;;10119183;29;20234;-76
2023/07/24 04:41:20;;;;;;;5.60;3.03;;;;;16.60;99855.00;;;;10153587;29;20234;-80
2023/07/24 04:46:22;;;;;;;3.25;2.42;;;;;16.80;99867.00;;;;10155332;29;20963;-80
2023/07/24 04:51:23;;;;;;;3.13;1.98;;;;;16.70;99859.00;;;;10143077;29;20214;-76
2023/07/24 04:56:24;;;;;;;4.00;2.35;;;;;16.70;99862.00;;;;10149684;29;20226;-77
2023/07/24 05:01:25;;;;;;;3.55;2.63;;;;;16.80;99864.00;;;;10141946;29;20211;-77
2023/07/24 05:06:26;;;;;;;4.07;2.80;;;;;16.80;99865.00;;;;10126118;29;20297;-76
2023/07/24 05:11:28;;;;;;;5.28;2.75;;;;;16.90;99871.00;;;;10152170;29;20209;-77
2023/07/24 05:16:29;;;;;;;17.70;3.80;;;;;17.00;99886.00;;;;10147765;29;20238;-77
2023/07/24 05:21:31;;;;;;;3.50;3.08;;;;;17.10;99886.00;;;;10151479;29;20258;-78
2023/07/24 05:26:32;;;;;;;3.70;2.75;;;;;17.20;99883.00;;;;10150387;29;20200;-74
2023/07/24 05:31:35;;;;;;;4.22;3.38;;;;;17.40;99893.00;;;;10173846;29;20241;-78
2023/07/24 05:36:36;;;;;;;4.38;2.85;;;;;17.30;99878.00;;;;10135663;29;20309;-79
2023/07/24 05:41:38;;;;;;;8.05;3.20;;;;;17.30;99877.00;;;;10158717;29;20221;-77
2023/07/24 05:46:42;;;;;;;6.03;3.65;;;;;17.90;99883.00;;;;10151122;29;20207;-77
2023/07/24 05:51:43;;;;;;;4.10;3.70;;;;;18.10;99880.00;;;;10145979;29;20258;-77
2023/07/24 05:56:44;;;;;;;5.22;3.22;;;;;18.20;99881.00;;;;10149872;29;20280;-77
2023/07/24 06:01:45;;;;;;;4.35;2.97;;;;;18.10;99882.00;;;;10167814;28;20585;-76
2023/07/24 06:06:47;;;;;;;4.57;3.13;;;;;18.20;99886.00;;;;10153739;29;21278;-76
2023/07/24 06:11:48;;;;;;;4.70;3.17;;;;;18.60;99886.00;;;;10144988;29;20226;-77
2023/07/24 06:16:49;;;;;;;6.28;3.70;;;;;19.40;99866.00;;;;10146155;29;20691;-77
2023/07/24 06:21:51;;;;;;;7.93;4.22;;;;;19.70;99865.00;;;;10151930;29;20669;-76
2023/07/24 06:26:52;;;;;;;5.85;3.33;;;;;19.20;99878.00;;;;10162830;29;20218;-75
2023/07/24 06:31:53;;;;;;;4.22;3.70;;;;;18.60;99876.00;;;;10172137;29;20202;-77
2023/07/24 06:36:55;;;;;;;5.40;3.60;;;;;18.90;99873.00;;;;10151507;29;20246;-77
2023/07/24 06:42:07;;;;;;;9.70;4.18;;;;;19.50;99878.00;;;;10167327;29;20214;-76
2023/07/24 06:47:08;;;;;;;5.22;3.70;;;;;19.30;99886.00;;;;10164091;29;20699;-75
2023/07/24 06:52:09;;;;;;;5.13;3.65;;;;;19.20;99877.00;;;;10148539;29;20575;-76
2023/07/24 06:57:10;;;;;;;7.65;4.15;;;;;20.00;99853.00;;;;10153682;29;20223;-76
2023/07/24 07:02:12;;;;;;;4.53;3.58;;;;;21.10;99855.00;;;;10159197;29;20194;-76
2023/07/24 07:07:13;;;;;;;3.20;2.90;;;;;21.20;99854.00;;;;10159586;29;20210;-76
2023/07/24 07:12:14;;;;;;;4.05;2.92;;;;;20.90;99861.00;;;;10150854;29;20210;-76
2023/07/24 07:17:16;;;;;;;4.90;3.03;;;;;20.60;99868.00;;;;10143887;29;20720;-82
2023/07/24 07:22:17;;;;;;;4.32;2.65;;;;;20.80;99866.00;;;;10163881;29;20207;-78
2023/07/24 07:27:18;;;;;;;3.45;2.55;;;;;20.40;99866.00;;;;10156634;29;20676;-81
2023/07/24 07:32:20;;;;;;;4.00;2.67;;;;;20.00;99874.00;;;;10163553;28;20672;-84
2023/07/24 07:37:21;;;;;;;4.97;2.60;;;;;19.90;99883.00;;;;10165564;29;20701;-79
2023/07/24 07:42:22;;;;;;;4.60;3.17;;;;;19.80;99883.00;;;;10158482;29;20199;-83
2023/07/24 07:47:23;;;;;;;3.15;2.80;;;;;20.10;99869.00;;;;10162634;29;20207;-80
2023/07/24 07:52:25;;;;;;;4.22;3.25;;;;;20.00;99855.00;;;;10140361;29;20553;-78
2023/07/24 07:57:26;;;;;;;5.80;3.40;;;;;20.20;99851.00;;;;10172598;29;20227;-81
2023/07/24 08:02:27;;;;;;;4.40;3.03;;;;;20.50;99846.00;;;;10158038;29;20205;-78
2023/07/24 08:07:30;;;;;;;4.97;3.70;;;;;21.50;99827.00;;;;10138276;29;20211;-78
2023/07/24 08:12:32;;;;;;;4.13;3.25;;;;;22.40;99821.00;;;;10154346;29;20638;-80
2023/07/24 08:17:34;;;;;;;4.43;3.10;;;;;22.20;99813.00;;;;10146756;29;20747;-80
2023/07/24 08:22:35;;;;;;;4.32;2.95;;;;;22.10;99805.00;;;;10147016;29;20247;-81
2023/07/24 08:27:37;;;;;;;4.57;2.90;;;;;21.40;99810.00;;;;10165703;29;20668;-77
2023/07/24 08:32:58;;;;;;;4.47;2.92;;;;;20.20;99813.00;;;;10159419;29;20213;-79
2023/07/24 08:38:01;;;;;;;5.32;3.20;;;;;19.90;99818.00;;;;10156577;28;21248;-78
2023/07/24 08:43:02;;;;;;;2.75;2.53;;;;;19.40;99804.00;;;;10155013;29;20287;-79
2023/07/24 08:48:04;;;;;;;6.18;3.28;;;;;19.10;99790.00;;;;10156164;29;20832;-77
2023/07/24 08:53:05;;;;;;;3.80;3.40;;;;;18.90;99825.00;;;;10158330;29;20214;-76
2023/07/24 08:58:09;;;;;;;4.05;2.58;;;;;18.60;99807.00;;;;10142591;29;20832;-79
2023/07/24 09:03:10;;;;;;;3.42;2.67;;;;;18.30;99828.00;;;;10133562;29;20816;-77
2023/07/24 09:08:12;;;;;;;5.50;3.92;;;;;17.90;99839.00;;;;10155932;28;20238;-74
2023/07/24 09:13:14;;;;;;;4.60;3.28;;;;;17.80;99828.00;;;;10174754;28;20370;-74
2023/07/24 09:18:16;;;;;;;3.20;2.80;;;;;17.80;99807.00;;;;10147716;29;20879;-77
2023/07/24 09:23:27;;;;;;;4.38;3.30;;;;;17.80;99810.00;;;;10138971;29;20211;-75
2023/07/24 09:28:29;;;;;;;3.70;2.95;;;;;17.70;99802.00;;;;10156657;29;20209;-77
2023/07/24 09:33:40;;;;;;;3.97;3.40;;;;;17.80;99808.00;;;;10150798;29;20214;-76
2023/07/24 09:38:42;;;;;;;3.88;3.38;;;;;18.00;99800.00;;;;10154631;29;20331;-76
2023/07/24 09:43:44;;;;;;;5.57;3.50;;;;;18.10;99797.00;;;;10163113;28;20550;-76
2023/07/24 09:48:45;;;;;;;4.15;3.53;;;;;18.50;99799.00;;;;10147652;29;20206;-76
2023/07/24 09:54:27;;;;;;;7.75;3.50;;;;;18.50;99794.00;;;;10165945;29;20234;-76
2023/07/24 09:59:29;;;;;;;5.90;3.88;;;;;18.50;99785.00;;;;10166005;29;20217;-77
2023/07/24 10:04:33;;;;;;;5.97;4.15;;;;;18.50;99822.00;;;;10169420;29;20261;-75
2023/07/24 10:09:36;;;;;;;8.20;4.10;;;;;19.00;99802.00;;;;10166076;28;20234;-76
2023/07/24 10:14:38;;;;;;;4.85;3.70;;;;;19.70;99824.00;;;;10169706;29;20594;-76
2023/07/24 10:19:43;;;;;;;4.72;3.45;;;;;19.90;99811.00;;;;10163605;29;20211;-76
2023/07/24 10:24:45;;;;;;;4.22;3.55;;;;;20.30;99818.00;;;;10130908;29;20230;-76
2023/07/24 10:29:57;;;;;;;3.90;3.28;;;;;20.80;99785.00;;;;10166169;29;20768;-76
2023/07/24 10:35:07;;;;;;;4.47;3.42;;;;;21.60;99787.00;;;;10179010;28;20218;-76
2023/07/24 10:40:22;;;;;;;4.93;2.53;;;;;21.70;99796.00;;;;10159183;29;20199;-76
2023/07/24 10:45:23;;;;;;;4.00;2.67;;;;;21.50;99806.00;;;;10159168;28;20218;-76
2023/07/24 10:50:25;;;;;;;4.60;3.10;;;;;21.90;99808.00;;;;10164431;29;20258;-78
2023/07/24 10:55:26;;;;;;;4.30;3.10;;;;;22.70;99810.00;;;;10162344;29;20230;-79
2023/07/24 11:00:28;;;;;;;5.78;3.20;;;;;23.20;99831.00;;;;10142015;29;20211;-77
2023/07/24 11:05:29;;;;;;;4.75;3.70;;;;;24.00;99830.00;;;;10152054;29;20205;-77
2023/07/24 11:10:32;;;;;;;4.05;3.47;;;;;24.70;99823.00;;;;10156154;29;20203;-78
2023/07/24 11:15:34;;;;;;;4.25;3.00;;;;;24.10;99842.00;;;;10174121;29;20234;-78
2023/07/24 11:20:44;;;;;;;3.40;3.10;;;;;23.30;99842.00;;;;10177112;28;20214;-78
2023/07/24 11:25:46;;;;;;;4.03;3.60;;;;;22.30;99850.00;;;;10157870;29;20269;-78
2023/07/24 11:30:47;;;;;;;3.53;3.22;;;;;22.90;99853.00;;;;10157613;29;20218;-79
2023/07/24 11:35:49;;;;;;;5.43;3.38;;;;;22.50;99864.00;;;;10154903;29;20229;-78
2023/07/24 11:40:55;;;;;;;4.30;3.30;;;;;22.90;99863.00;;;;10163043;29;20226;-79
2023/07/24 11:45:56;;;;;;;4.50;3.75;;;;;24.70;99866.00;;;;10159925;29;20207;-80
2023/07/24 11:50:59;;;;;;;4.03;3.40;;;;;25.10;99858.00;;;;10175553;29;20201;-79
2023/07/24 11:56:03;;;;;;;8.75;3.95;;;;;25.60;99862.00;;;;10151699;29;20916;-80
2023/07/24 12:01:04;;;;;;;4.40;3.90;;;;;26.20;99854.00;;;;10136162;29;20909;-79
2023/07/24 12:06:14;;;;;;;5.90;4.25;;;;;26.50;99842.00;;;;10161668;29;20203;-81
2023/07/24 12:11:18;;;;;;;4.93;4.05;;;;;26.70;99841.00;;;;10160751;28;20961;-80
2023/07/24 12:16:19;;;;;;;3.90;3.50;;;;;26.50;99836.00;;;;10160762;29;20788;-80
2023/07/24 12:21:20;;;;;;;6.18;4.25;;;;;25.20;99836.00;;;;10146226;29;20207;-80
2023/07/24 12:26:25;;;;;;;5.30;3.63;;;;;25.20;99835.00;;;;10160451;29;20199;-78
2023/07/24 12:31:26;;;;;;;4.57;3.58;;;;;25.40;99841.00;;;;10165658;29;20211;-78
2023/07/24 12:36:27;;;;;;;5.65;4.05;;;;;24.90;99847.00;;;;10164192;29;20222;-78
2023/07/24 12:41:46;;;;;;;8.77;4.03;;;;;24.10;99849.00;;;;10634627;27;20332;-77
2023/07/24 12:46:47;;;;;;;6.63;3.38;;;;;23.70;99847.00;;;;10590684;27;20196;-77
2023/07/24 12:51:49;;;;;;;4.28;3.63;;;;;23.80;99839.00;;;;10582676;27;20233;-77
2023/07/24 12:56:50;;;;;;;3.60;3.13;;;;;24.40;99832.00;;;;10600516;27;20246;-77
2023/07/24 13:01:52;;;;;;;5.47;4.18;;;;;24.50;99837.00;;;;10593879;27;20239;-78
2023/07/24 13:06:53;;;;;;;3.22;2.92;;;;;24.20;99846.00;;;;10602413;27;20312;-77
2023/07/24 13:11:55;;;;;;;6.03;3.40;;;;;24.10;99850.00;;;;10552171;27;20248;-77
2023/07/24 13:16:56;;;;;;;5.43;3.85;;;;;24.80;99859.00;;;;10536937;27;20231;-78
2023/07/24 13:21:57;;;;;;;4.60;3.63;;;;;24.50;99860.00;;;;10535662;27;20283;-78
2023/07/24 13:26:59;;;;;;;5.05;3.13;;;;;25.30;99865.00;;;;10537996;27;20261;-77
2023/07/24 13:32:00;;;;;;;6.97;2.75;;;;;25.00;99860.00;;;;10566997;27;20204;-78
2023/07/24 13:37:01;;;;;;;5.00;2.63;;;;;24.40;99860.00;;;;10542733;27;20918;-78
2023/07/24 13:42:03;;;;;;;3.97;3.00;;;;;24.50;99860.00;;;;10539957;27;20212;-79
2023/07/24 13:47:04;;;;;;;4.30;2.22;;;;;24.80;99853.00;;;;10545580;27;20249;-78
2023/07/24 13:52:06;;;;;;;3.40;3.10;;;;;24.90;99851.00;;;;10506121;27;20201;-78
2023/07/24 13:57:08;;;;;;;5.28;3.10;;;;;24.60;99842.00;;;;10499255;27;20208;-78
2023/07/24 14:02:09;;;;;;;4.95;2.90;;;;;24.90;99840.00;;;;10503930;28;20250;-78
2023/07/24 14:07:12;;;;;;;5.20;2.42;;;;;24.70;99858.00;;;;10518260;27;20196;-79
2023/07/24 14:12:14;;;;;;;4.25;3.30;;;;;24.50;99849.00;;;;10486520;28;20236;-78
2023/07/24 14:17:15;;;;;;;3.13;2.45;;;;;25.20;99849.00;;;;10513649;28;20217;-79
2023/07/24 14:22:16;;;;;;;4.35;3.25;;;;;25.40;99845.00;;;;10507276;28;20204;-79
2023/07/24 14:27:18;;;;;;;5.13;3.00;;;;;26.30;99858.00;;;;10502881;27;20197;-79
2023/07/24 14:32:23;;;;;;;2.95;2.75;;;;;26.30;99862.00;;;;10523227;27;20810;-78
2023/07/24 14:37:28;;;;;;;2.55;2.35;;;;;24.60;99868.00;;;;10486457;27;20830;-78
2023/07/24 14:42:30;;;;;;;3.47;2.17;;;;;22.30;99903.00;;;;10512792;28;20909;-78
2023/07/24 14:47:31;;;;;;;4.20;3.15;;;;;19.10;99901.00;;;;10515204;27;20197;-76
2023/07/24 14:52:33;;;;;;;4.10;2.67;;;;;17.60;99918.00;;;;10494164;27;20253;-76
2023/07/24 14:57:35;;;;;;;4.13;3.47;;;;;17.80;99920.00;;;;10490853;28;20208;-75
2023/07/24 15:02:37;;;;;;;7.38;3.25;;;;;18.60;99932.00;;;;10509341;27;20197;-77
2023/07/24 15:07:38;;;;;;;5.53;3.35;;;;;18.70;99936.00;;;;10507975;27;20205;-78
2023/07/24 15:12:39;;;;;;;3.55;2.80;;;;;17.80;99949.00;;;;10525151;27;20196;-78
2023/07/24 15:17:41;;;;;;;5.25;3.70;;;;;17.10;99942.00;;;;10478330;28;20304;-76
2023/07/24 15:22:42;;;;;;;8.50;3.75;;;;;16.60;99957.00;;;;10508293;27;20209;-76
2023/07/24 15:27:43;;;;;;;5.25;4.45;;;;;17.00;99942.00;;;;10505050;27;20193;-76
2023/07/24 15:32:48;;;;;;;6.15;4.72;;;;;17.70;99928.00;;;;10508315;27;20250;-75
2023/07/24 15:37:51;;;;;;;7.45;5.40;;;;;18.40;99934.00;;;;10508107;27;20563;-75
2023/07/24 15:42:52;;;;;;;5.72;5.13;;;;;18.60;99932.00;;;;10489561;28;20200;-75
2023/07/24 15:47:53;;;;;;;7.45;4.68;;;;;18.80;99920.00;;;;10515785;27;20192;-76
2023/07/24 15:52:58;;;;;;;11.18;5.85;;;;;19.10;99927.00;;;;10478157;27;20211;-75
2023/07/24 15:57:59;;;;;;;7.63;5.57;;;;;20.10;99917.00;;;;10502160;27;20796;-75
2023/07/24 16:03:02;;;;;;;8.32;5.22;;;;;20.40;99917.00;;;;10509965;27;20201;-75
2023/07/24 16:08:04;;;;;;;7.30;4.93;;;;;19.80;99925.00;;;;10514127;27;20212;-75
2023/07/24 16:13:05;;;;;;;6.15;5.13;;;;;19.20;99931.00;;;;10481797;27;20211;-76
2023/07/24 16:18:06;;;;;;;6.68;5.05;;;;;18.70;99938.00;;;;10494039;27;21206;-76
2023/07/24 16:23:08;;;;;;;15.70;6.30;;;;;18.10;99955.00;;;;10507032;27;20209;-78
2023/07/24 16:28:09;;;;;;;7.22;5.35;;;;;17.60;99958.00;;;;10507153;28;20727;-77
2023/07/24 16:33:10;;;;;;;8.75;5.95;;;;;17.20;99959.00;;;;10508174;28;20712;-79
2023/07/24 16:38:15;;;;;;;9.20;7.03;;;;;17.40;99964.00;;;;10495641;27;20216;-82
2023/07/24 16:43:16;;;;;;;11.00;7.45;;;;;17.70;99966.00;;;;10495504;27;20197;-80
2023/07/24 16:48:18;;;;;;;8.13;7.30;;;;;18.10;99967.00;;;;10512182;27;20778;-83
2023/07/24 16:53:19;;;;;;;12.05;7.63;;;;;18.80;99962.00;;;;10524391;27;20280;-84
2023/07/24 16:58:20;;;;;;;13.98;8.27;;;;;19.20;99965.00;;;;10522339;27;20213;-83
2023/07/24 17:03:21;;;;;;;9.73;7.90;;;;;19.00;99958.00;;;;10521039;27;20237;-84
2023/07/24 17:08:23;;;;;;;7.20;6.28;;;;;19.30;99959.00;;;;10526950;27;20252;-81
2023/07/24 17:13:24;;;;;;;6.70;3.90;;;;;19.40;99966.00;;;;10498524;27;20197;-77
2023/07/24 17:18:25;;;;;;;4.00;2.75;;;;;18.90;99985.00;;;;10506006;27;20215;-74
2023/07/24 17:23:27;;;;;;;3.35;2.10;;;;;18.30;99985.00;;;;10524447;27;20205;-77
2023/07/24 17:28:28;;;;;;;3.65;2.42;;;;;18.00;99992.00;;;;10500032;28;20203;-76
2023/07/24 17:33:30;;;;;;;5.32;2.83;;;;;18.10;99997.00;;;;10503040;28;20205;-73
2023/07/24 17:38:34;;;;;;;2.45;1.55;;;;;18.10;99999.00;;;;10515154;28;20557;-78
2023/07/24 17:43:35;;;;;;;3.92;1.40;;;;;18.20;99998.00;;;;10542048;27;20231;-74
2023/07/24 17:48:36;;;;;;;3.90;1.40;;;;;17.60;100010.00;;;;10491194;27;20205;-77
2023/07/24 17:53:38;;;;;;;3.60;0.98;;;;;17.70;100027.00;;;;10528514;27;20850;-76
2023/07/24 17:58:39;;;;;;;1.83;0.90;;;;;17.60;100023.00;;;;10539077;27;20223;-77
2023/07/24 18:03:40;;;;;;;0.82;0.82;;;;;17.40;100032.00;;;;10518821;27;20201;-77
2023/07/24 18:08:42;;;;;;;1.10;0.68;;;;;17.20;100031.00;;;;10521587;27;20279;-77
2023/07/24 18:13:43;;;;;;;1.52;1.10;;;;;17.10;100035.00;;;;10521733;27;20209;-77
2023/07/24 18:18:45;;;;;;;1.95;0.68;;;;;17.00;100038.00;;;;10534326;27;20223;-77
2023/07/24 18:23:46;;;;;;;2.13;0.90;;;;;16.90;100047.00;;;;10513084;27;20306;-77
2023/07/24 18:28:47;;;;;;;2.83;0.70;;;;;16.70;100058.00;;;;10488979;27;20808;-76
2023/07/24 18:33:48;;;;;;;1.67;0.70;;;;;16.70;100056.00;;;;10522254;27;20280;-77
2023/07/24 18:38:50;;;;;;;3.10;0.85;;;;;16.60;100061.00;;;;10529897;27;20726;-77
2023/07/24 18:43:51;;;;;;;3.20;0.77;;;;;16.50;100065.00;;;;10540441;27;20211;-77
2023/07/24 18:48:52;;;;;;;2.28;0.70;;;;;16.40;100065.00;;;;10548962;27;20200;-77
2023/07/24 18:53:54;;;;;;;2.92;1.15;;;;;16.30;100065.00;;;;10499534;27;20861;-77
2023/07/24 18:58:55;;;;;;;2.42;0.75;;;;;16.10;100067.00;;;;10531629;27;20217;-77
2023/07/24 19:03:56;;;;;;;4.38;1.10;;;;;16.00;100065.00;;;;10485348;27;20193;-77
2023/07/24 19:08:58;;;;;;;2.78;0.75;;;;;15.80;100074.00;;;;10493153;27;20714;-77
2023/07/24 19:13:59;;;;;;;3.13;1.25;;;;;15.70;100063.00;;;;10482076;27;20270;-77
2023/07/24 19:19:03;;;;;;;6.13;1.17;;;;;15.60;100064.00;;;;10469655;28;20291;-77
2023/07/24 19:24:06;;;;;;;1.40;0.98;;;;;15.40;100077.00;;;;10526156;27;20271;-77
2023/07/24 19:29:07;;;;;;;2.20;1.08;;;;;15.30;100086.00;;;;10520735;27;20196;-78
2023/07/24 19:34:09;;;;;;;2.17;1.35;;;;;15.10;100106.00;;;;10523643;27;20839;-77
2023/07/24 19:39:10;;;;;;;5.30;1.35;;;;;14.80;100107.00;;;;10533788;28;20575;-78
2023/07/24 19:44:11;;;;;;;2.67;1.60;;;;;14.60;100111.00;;;;10520681;27;20585;-78
2023/07/24 19:49:13;;;;;;;3.33;1.30;;;;;14.50;100112.00;;;;10518044;27;20822;-78
2023/07/24 19:54:14;;;;;;;6.38;1.60;;;;;14.50;100121.00;;;;10512537;27;20574;-78
2023/07/24 19:59:16;;;;;;;3.57;1.90;;;;;14.40;100132.00;;;;10513648;27;20196;-79
2023/07/24 20:04:17;;;;;;;2.88;1.77;;;;;14.30;100144.00;;;;10521236;27;20200;-78
2023/07/24 20:09:19;;;;;;;7.60;3.75;;;;;14.20;100156.00;;;;10556325;27;20527;-77
2023/07/24 20:14:20;;;;;;;4.40;2.03;;;;;14.10;100158.00;;;;10524261;27;20340;-78
2023/07/24 20:19:22;;;;;;;3.73;1.73;;;;;14.10;100160.00;;;;10516688;28;20217;-79
2023/07/24 20:24:23;;;;;;;2.40;1.50;;;;;13.90;100162.00;;;;10520612;27;20231;-78
2023/07/24 20:29:24;;;;;;;3.83;2.20;;;;;13.90;100162.00;;;;10545953;27;20204;-79
2023/07/24 20:34:26;;;;;;;5.73;2.20;;;;;14.10;100161.00;;;;10513236;27;20201;-78
2023/07/24 20:39:28;;;;;;;5.57;2.10;;;;;14.30;100166.00;;;;10533827;27;20591;-79
2023/07/24 20:44:29;;;;;;;10.50;3.23;;;;;14.30;100161.00;;;;10481688;28;20205;-79
2023/07/24 20:49:34;;;;;;;5.82;2.38;;;;;14.30;100159.00;;;;10525656;27;20429;-79
2023/07/24 20:54:35;;;;;;;4.77;2.30;;;;;14.30;100152.00;;;;10515369;27;20212;-79
2023/07/24 20:59:36;;;;;;;6.55;2.30;;;;;14.30;100159.00;;;;10500109;27;20209;-79
2023/07/24 21:04:37;;;;;;;4.03;2.15;;;;;14.30;100158.00;;;;10493471;28;20899;-80
2023/07/24 21:09:39;;;;;;;8.23;2.47;;;;;14.30;100140.00;;;;10488737;28;20211;-79
2023/07/24 21:14:41;;;;;;;5.80;2.80;;;;;14.30;100152.00;;;;10488058;27;20216;-79
2023/07/24 21:19:42;;;;;;;6.43;2.53;;;;;14.30;100148.00;;;;10506503;28;20621;-76
2023/07/24 21:24:43;;;;;;;22.67;3.67;;;;;14.40;100158.00;;;;10486672;28;20211;-80
2023/07/24 21:29:45;;;;;;;8.80;2.97;;;;;14.40;100159.00;;;;10504627;27;20220;-79
2023/07/24 21:34:46;;;;;;;7.80;2.75;;;;;14.50;100144.00;;;;10506886;27;20869;-85
2023/07/24 21:39:48;;;;;;;8.25;3.08;;;;;14.50;100143.00;;;;10513439;27;20209;-74
2023/07/24 21:44:50;;;;;;;7.55;3.00;;;;;14.60;100154.00;;;;10482523;28;20201;-74
2023/07/24 21:49:52;;;;;;;8.18;3.10;;;;;14.60;100159.00;;;;10521028;27;20207;-74
2023/07/24 21:54:53;;;;;;;6.90;2.35;;;;;14.60;100159.00;;;;10504853;27;20280;-73
2023/07/24 21:59:54;;;;;;;6.25;2.80;;;;;14.60;100165.00;;;;10496482;28;20209;-76
2023/07/24 22:04:56;;;;;;;6.03;3.00;;;;;14.60;100157.00;;;;10519377;27;20193;-77
2023/07/24 22:09:57;;;;;;;7.07;3.00;;;;;14.60;100157.00;;;;10517731;27;20196;-74
2023/07/24 22:14:59;;;;;;;5.50;3.08;;;;;14.50;100154.00;;;;10525893;27;20244;-76
2023/07/24 22:20:00;;;;;;;6.83;3.00;;;;;14.40;100155.00;;;;10538663;27;20223;-78
2023/07/24 22:25:02;;;;;;;10.77;3.65;;;;;14.30;100152.00;;;;10527913;27;20794;-76
2023/07/24 22:30:04;;;;;;;6.25;3.45;;;;;14.30;100144.00;;;;10490688;27;20573;-76
2023/07/24 22:35:11;;;;;;;4.35;2.75;;;;;14.30;100150.00;;;;11439313;22;20267;31
2023/07/24 22:40:12;;;;;;;11.07;3.80;;;;;14.20;100166.00;;;;10406169;28;20225;-74
2023/07/24 22:45:14;;;;;;;7.53;3.05;;;;;14.20;100160.00;;;;10398010;28;20290;-83
2023/07/24 22:50:15;;;;;;;9.38;4.40;;;;;14.20;100167.00;;;;10382312;28;20785;-78
2023/07/24 22:55:18;;;;;;;7.05;3.35;;;;;14.20;100176.00;;;;10374346;28;20210;-82
2023/07/24 23:00:19;;;;;;;9.18;4.22;;;;;14.20;100178.00;;;;10395290;28;20229;-79
2023/07/24 23:05:21;;;;;;;10.23;4.20;;;;;14.20;100172.00;;;;10388293;28;20286;-78
2023/07/24 23:10:23;;;;;;;12.23;3.73;;;;;14.20;100170.00;;;;10407420;28;20195;-74
2023/07/24 23:15:24;;;;;;;7.95;3.13;;;;;14.20;100166.00;;;;10408584;28;20210;-75
2023/07/24 23:20:25;;;;;;;6.10;3.50;;;;;14.20;100168.00;;;;10380312;28;20378;-74
2023/07/24 23:25:27;;;;;;;8.07;3.23;;;;;14.20;100172.00;;;;10406785;28;20970;-78
2023/07/24 23:30:28;;;;;;;10.97;3.50;;;;;14.20;100173.00;;;;10403521;28;20199;-79
2023/07/24 23:35:31;;;;;;;9.00;3.60;;;;;14.20;100180.00;;;;10408633;28;20199;-79
2023/07/24 23:40:34;;;;;;;9.10;3.57;;;;;14.10;100183.00;;;;10407578;28;20260;-78
2023/07/24 23:45:36;;;;;;;7.00;3.83;;;;;14.20;100174.00;;;;10406927;28;20248;-79
2023/07/24 23:50:37;;;;;;;5.22;3.30;;;;;14.20;100177.00;;;;10391309;28;20199;-78
2023/07/24 23:55:39;;;;;;;10.75;3.83;;;;;14.20;100172.00;;;;10387222;28;20249;-78
